Time;durP1;ratioP1;P1;durP2;ratioP2;P2;SDS_P1;SDS_P2;PMS_P1;PMS_P2;Temp;Humidity;BMP_temperature;BMP_pressure;BME280_temperature;BME280_humidity;BME280_pressure;Samples;Min_cycle;Max_cycle;Signal;HPM_P1;HPM_P2
2023/06/24 00:01:45;;;;;;;4.28;3.17;;;;;;;;;;5050897;28;20043;-67
2023/06/24 00:04:10;;;;;;;4.05;3.00;;;;;;;;;;5054585;28;20040;-67
2023/06/24 00:06:36;;;;;;;2.83;2.60;;;;;;;;;;5033884;28;20041;-67
2023/06/24 00:09:02;;;;;;;3.78;2.60;;;;;;;;;;5022552;28;20029;-67
2023/06/24 00:11:29;;;;;;;4.10;2.35;;;;;;;;;;5053808;28;20544;-67
2023/06/24 00:13:54;;;;;;;2.80;2.60;;;;;;;;;;5052138;28;20481;-67
2023/06/24 00:16:26;;;;;;;3.78;2.72;;;;;;;;;;5052353;28;20045;-67
2023/06/24 00:18:53;;;;;;;;;;;;;;;;;;5021503;28;20033;-67
2023/06/24 00:21:19;;;;;;;2.83;2.63;;;;;;;;;;5051759;28;19927;-67
2023/06/24 00:23:45;;;;;;;4.22;2.35;;;;;;;;;;5037433;28;20037;-67
2023/06/24 00:26:10;;;;;;;3.15;2.47;;;;;;;;;;5045774;28;20105;-67
2023/06/24 00:28:36;;;;;;;2.88;2.63;;;;;;;;;;5019490;28;20083;-66
2023/06/24 00:31:02;;;;;;;5.47;2.80;;;;;;;;;;5036248;28;20510;-66
2023/06/24 00:33:28;;;;;;;4.32;2.90;;;;;;;;;;5054981;28;20098;-67
2023/06/24 00:35:54;;;;;;;2.90;2.70;;;;;;;;;;5017946;28;20770;-67
2023/06/24 00:38:20;;;;;;;5.75;3.30;;;;;;;;;;5037302;28;20406;-67
2023/06/24 00:40:46;;;;;;;2.95;2.60;;;;;;;;;;5040270;28;20041;-67
2023/06/24 00:43:11;;;;;;;2.78;2.55;;;;;;;;;;5058987;28;20389;-67
2023/06/24 00:45:37;;;;;;;2.97;2.67;;;;;;;;;;5048699;28;20041;-66
2023/06/24 00:48:03;;;;;;;4.85;2.67;;;;;;;;;;5036134;28;20032;-67
2023/06/24 00:50:29;;;;;;;2.72;2.40;;;;;;;;;;5050500;28;20108;-66
2023/06/24 00:52:54;;;;;;;2.85;2.65;;;;;;;;;;5051594;28;20056;-67
2023/06/24 00:55:20;;;;;;;6.00;2.75;;;;;;;;;;5057111;28;20037;-67
2023/06/24 00:57:51;;;;;;;3.20;2.80;;;;;;;;;;5053210;28;20654;-67
2023/06/24 01:00:22;;;;;;;3.10;2.57;;;;;;;;;;5055264;28;20039;-68
2023/06/24 01:02:49;;;;;;;3.70;2.10;;;;;;;;;;5039606;28;20562;-67
2023/06/24 01:05:15;;;;;;;2.78;2.55;;;;;;;;;;5056160;28;20059;-67
2023/06/24 01:07:41;;;;;;;4.45;2.50;;;;;;;;;;5041866;28;20025;-67
2023/06/24 01:10:09;;;;;;;3.25;2.88;;;;;;;;;;5036112;28;20057;-67
2023/06/24 01:12:40;;;;;;;6.10;3.17;;;;;;;;;;5039940;28;20426;-67
2023/06/24 01:15:10;;;;;;;4.53;2.95;;;;;;;;;;5055048;28;20502;-67
2023/06/24 01:17:58;;;;;;;2.92;2.60;;;;;;;;;;5053821;28;20021;-67
2023/06/24 01:20:46;;;;;;;5.03;2.80;;;;;;;;;;4994140;28;20080;-67
2023/06/24 01:23:14;;;;;;;3.05;2.85;;;;;;;;;;5061437;28;20441;-67
2023/06/24 01:25:58;;;;;;;3.05;2.85;;;;;;;;;;5048174;28;20044;-66
2023/06/24 01:28:41;;;;;;;3.22;2.65;;;;;;;;;;5044046;28;20028;-67
2023/06/24 01:31:23;;;;;;;6.22;2.90;;;;;;;;;;5048733;28;20029;-68
2023/06/24 01:34:30;;;;;;;3.13;2.63;;;;;;;;;;5036547;28;20033;-67
2023/06/24 01:37:21;;;;;;;2.88;2.67;;;;;;;;;;5042982;28;20405;-67
2023/06/24 01:40:08;;;;;;;3.67;2.65;;;;;;;;;;5030843;28;20025;-48
2023/06/24 01:42:38;;;;;;;2.80;2.60;;;;;;;;;;5051575;28;20077;-67
2023/06/24 01:45:06;;;;;;;2.67;2.47;;;;;;;;;;5050749;28;20029;-67
2023/06/24 01:47:33;;;;;;;7.15;2.78;;;;;;;;;;5015175;28;20031;-67
2023/06/24 01:50:02;;;;;;;6.50;3.20;;;;;;;;;;5039776;28;20056;-67
2023/06/24 01:52:30;;;;;;;2.92;2.67;;;;;;;;;;5056748;28;20024;-67
2023/06/24 01:54:58;;;;;;;2.95;2.63;;;;;;;;;;5039790;28;20025;-67
2023/06/24 01:57:25;;;;;;;4.25;2.75;;;;;;;;;;5051886;28;20026;-68
2023/06/24 01:59:55;;;;;;;2.58;2.40;;;;;;;;;;5050564;28;20100;-66
2023/06/24 02:02:21;;;;;;;8.50;2.50;;;;;;;;;;5037717;28;20056;-67
2023/06/24 02:04:49;;;;;;;3.15;2.95;;;;;;;;;;5025518;28;20031;-59
2023/06/24 02:07:17;;;;;;;5.00;2.55;;;;;;;;;;5048565;28;20041;-67
2023/06/24 02:09:44;;;;;;;3.40;2.60;;;;;;;;;;5035835;28;20049;-67
2023/06/24 02:12:10;;;;;;;6.20;2.90;;;;;;;;;;5050504;28;20025;-68
2023/06/24 02:14:36;;;;;;;8.35;2.72;;;;;;;;;;5053595;28;20032;-67
2023/06/24 02:17:06;;;;;;;5.07;3.17;;;;;;;;;;5053556;28;20049;-67
2023/06/24 02:19:32;;;;;;;2.70;2.50;;;;;;;;;;5027548;28;20133;-67
2023/06/24 02:21:59;;;;;;;2.58;2.38;;;;;;;;;;5039815;28;20044;-67
2023/06/24 02:24:26;;;;;;;2.50;2.28;;;;;;;;;;5050365;28;20032;-67
2023/06/24 02:26:53;;;;;;;3.17;2.88;;;;;;;;;;5038113;28;20045;-67
2023/06/24 02:29:20;;;;;;;2.90;2.70;;;;;;;;;;5050234;28;20036;-67
2023/06/24 02:31:45;;;;;;;4.50;2.50;;;;;;;;;;5022137;28;20045;-68
2023/06/24 02:34:11;;;;;;;2.90;2.70;;;;;;;;;;5049008;28;20463;-67
2023/06/24 02:36:36;;;;;;;2.60;2.40;;;;;;;;;;5040984;28;20041;-68
2023/06/24 02:39:02;;;;;;;4.15;2.97;;;;;;;;;;5055785;28;20032;-68
2023/06/24 02:41:27;;;;;;;2.65;2.45;;;;;;;;;;5056200;28;20491;-68
2023/06/24 02:43:53;;;;;;;3.63;3.08;;;;;;;;;;5038859;28;20032;-68
2023/06/24 02:46:20;;;;;;;2.78;2.55;;;;;;;;;;5053666;28;20124;-67
2023/06/24 02:48:48;;;;;;;3.65;2.67;;;;;;;;;;5035493;28;22440;-68
2023/06/24 02:51:14;;;;;;;4.90;2.90;;;;;;;;;;5025006;28;20556;-68
2023/06/24 02:53:40;;;;;;;11.73;2.78;;;;;;;;;;5035694;28;20032;-69
2023/06/24 02:56:08;;;;;;;3.00;2.67;;;;;;;;;;5044786;28;20099;-68
2023/06/24 02:58:33;;;;;;;3.25;2.80;;;;;;;;;;5055589;28;20031;-69
2023/06/24 03:01:00;;;;;;;4.38;2.45;;;;;;;;;;5053103;28;20124;-68
2023/06/24 03:03:27;;;;;;;2.72;2.50;;;;;;;;;;5041580;28;20573;-69
2023/06/24 03:05:54;;;;;;;4.88;2.95;;;;;;;;;;5051259;28;20041;-70
2023/06/24 03:08:19;;;;;;;3.10;2.78;;;;;;;;;;5034232;28;20032;-69
2023/06/24 03:10:45;;;;;;;5.18;2.42;;;;;;;;;;5051442;28;20517;-69
2023/06/24 03:13:10;;;;;;;3.10;2.80;;;;;;;;;;5056933;28;20028;-68
2023/06/24 03:15:36;;;;;;;2.92;2.70;;;;;;;;;;5041540;28;20539;-69
2023/06/24 03:18:01;;;;;;;2.97;2.45;;;;;;;;;;5047853;28;20025;-69
2023/06/24 03:20:26;;;;;;;2.92;2.72;;;;;;;;;;5040883;28;20503;-69
2023/06/24 03:22:52;;;;;;;3.00;2.80;;;;;;;;;;5037917;28;20035;-69
2023/06/24 03:25:17;;;;;;;2.78;2.58;;;;;;;;;;5037738;28;20465;-69
2023/06/24 03:27:43;;;;;;;3.85;2.55;;;;;;;;;;5059521;28;20045;-69
2023/06/24 03:30:10;;;;;;;3.15;2.95;;;;;;;;;;5038822;28;20071;-69
2023/06/24 03:32:36;;;;;;;2.60;2.40;;;;;;;;;;5017775;28;20021;-68
2023/06/24 03:35:03;;;;;;;2.80;2.60;;;;;;;;;;5045228;28;20028;-70
2023/06/24 03:37:28;;;;;;;3.53;2.30;;;;;;;;;;5013454;28;20064;-69
2023/06/24 03:39:56;;;;;;;3.70;2.75;;;;;;;;;;5041861;28;20032;-68
2023/06/24 03:42:21;;;;;;;4.28;2.63;;;;;;;;;;5048135;28;20033;-69
2023/06/24 03:44:47;;;;;;;3.63;2.65;;;;;;;;;;5048480;28;20022;-60
2023/06/24 03:47:12;;;;;;;2.92;2.72;;;;;;;;;;5053427;28;20198;-68
2023/06/24 03:49:38;;;;;;;6.70;3.15;;;;;;;;;;5046857;28;20028;-69
2023/06/24 03:52:05;;;;;;;3.00;2.80;;;;;;;;;;5037228;28;20532;-69
2023/06/24 03:54:31;;;;;;;3.30;3.00;;;;;;;;;;5054629;28;20109;-69
2023/06/24 03:56:56;;;;;;;3.08;2.80;;;;;;;;;;5034053;28;20064;-69
2023/06/24 03:59:21;;;;;;;3.63;3.22;;;;;;;;;;5046802;28;20108;-69
2023/06/24 04:01:47;;;;;;;5.38;2.63;;;;;;;;;;5032256;28;20734;-70
2023/06/24 04:04:12;;;;;;;4.38;2.45;;;;;;;;;;5037855;28;20064;-68
2023/06/24 04:06:38;;;;;;;3.90;2.60;;;;;;;;;;5036399;28;20037;-69
2023/06/24 04:09:03;;;;;;;3.78;2.35;;;;;;;;;;5037202;28;20025;-69
2023/06/24 04:11:29;;;;;;;4.30;2.50;;;;;;;;;;5040100;28;20029;-69
2023/06/24 04:13:54;;;;;;;3.75;2.75;;;;;;;;;;5044188;28;20035;-71
2023/06/24 04:16:19;;;;;;;5.65;3.17;;;;;;;;;;5037537;28;20076;-69
2023/06/24 04:18:45;;;;;;;4.13;2.90;;;;;;;;;;5045995;28;20028;-69
2023/06/24 04:21:11;;;;;;;3.13;2.60;;;;;;;;;;5049203;28;20041;-69
2023/06/24 04:23:36;;;;;;;3.22;3.00;;;;;;;;;;5059323;28;20033;-69
2023/06/24 04:26:02;;;;;;;3.15;2.85;;;;;;;;;;5052669;28;20086;-69
2023/06/24 04:28:27;;;;;;;8.68;2.88;;;;;;;;;;5037986;28;20035;-69
2023/06/24 04:30:54;;;;;;;3.10;2.78;;;;;;;;;;5021879;28;20069;-68
2023/06/24 04:33:19;;;;;;;4.13;2.85;;;;;;;;;;5038129;28;20611;-70
2023/06/24 04:35:46;;;;;;;2.70;2.50;;;;;;;;;;5044559;28;20467;-70
2023/06/24 04:38:17;;;;;;;3.15;2.85;;;;;;;;;;5053303;28;20107;-71
2023/06/24 04:40:43;;;;;;;3.17;2.85;;;;;;;;;;5051137;28;20428;-70
2023/06/24 04:43:08;;;;;;;2.92;2.72;;;;;;;;;;5056137;28;20116;-69
2023/06/24 04:45:34;;;;;;;5.30;3.05;;;;;;;;;;5021419;28;20069;-69
2023/06/24 04:47:59;;;;;;;3.92;3.20;;;;;;;;;;5037878;28;20029;-70
2023/06/24 04:50:25;;;;;;;6.97;2.65;;;;;;;;;;5044585;28;20033;-68
2023/06/24 04:52:54;;;;;;;6.78;2.70;;;;;;;;;;5032240;28;20032;-70
2023/06/24 04:55:21;;;;;;;5.95;2.65;;;;;;;;;;5056505;28;20116;-70
2023/06/24 04:57:47;;;;;;;5.40;2.67;;;;;;;;;;5029893;28;20025;-71
2023/06/24 05:00:13;;;;;;;3.47;2.80;;;;;;;;;;5045338;28;20502;-70
2023/06/24 05:02:38;;;;;;;4.78;2.90;;;;;;;;;;5033767;28;20029;-70
2023/06/24 05:05:04;;;;;;;4.50;2.80;;;;;;;;;;5020337;28;20056;-70
2023/06/24 05:07:29;;;;;;;5.28;2.80;;;;;;;;;;5044709;28;20462;-71
2023/06/24 05:09:55;;;;;;;5.47;2.92;;;;;;;;;;5046286;28;20482;-71
2023/06/24 05:12:20;;;;;;;3.03;2.65;;;;;;;;;;5042787;28;20033;-71
2023/06/24 05:14:51;;;;;;;2.92;2.58;;;;;;;;;;5041606;28;20029;-71
2023/06/24 05:17:16;;;;;;;3.47;2.80;;;;;;;;;;5038152;28;20044;-72
2023/06/24 05:19:41;;;;;;;5.07;3.20;;;;;;;;;;5039454;28;20155;-72
2023/06/24 05:22:09;;;;;;;5.55;2.97;;;;;;;;;;5040790;28;20529;-72
2023/06/24 05:24:34;;;;;;;4.30;2.95;;;;;;;;;;5018268;28;20682;-70
2023/06/24 05:27:05;;;;;;;5.55;4.13;;;;;;;;;;5036020;28;20061;-70
2023/06/24 05:29:30;;;;;;;2.97;2.67;;;;;;;;;;5035458;28;20037;-70
2023/06/24 05:31:56;;;;;;;3.53;2.92;;;;;;;;;;5024024;28;20041;-70
2023/06/24 05:34:21;;;;;;;5.65;2.90;;;;;;;;;;5047949;28;20513;-69
2023/06/24 05:36:46;;;;;;;3.30;3.00;;;;;;;;;;5043477;28;20456;-71
2023/06/24 05:39:13;;;;;;;4.35;2.72;;;;;;;;;;5056360;28;20060;-71
2023/06/24 05:41:39;;;;;;;3.15;2.85;;;;;;;;;;5050287;28;20068;-70
2023/06/24 05:44:08;;;;;;;6.65;2.90;;;;;;;;;;5040028;28;20029;-71
2023/06/24 05:46:34;;;;;;;5.90;2.90;;;;;;;;;;5033407;28;20037;-71
2023/06/24 05:48:59;;;;;;;3.33;2.85;;;;;;;;;;5054511;28;20382;-72
2023/06/24 05:51:25;;;;;;;3.03;2.72;;;;;;;;;;5036026;28;20437;-71
2023/06/24 05:53:50;;;;;;;3.13;2.83;;;;;;;;;;5056681;28;20036;-71
2023/06/24 05:56:16;;;;;;;5.57;3.33;;;;;;;;;;5055780;28;20494;-71
2023/06/24 05:58:41;;;;;;;3.65;3.08;;;;;;;;;;5036849;28;20024;-71
2023/06/24 06:01:10;;;;;;;4.47;3.05;;;;;;;;;;5053766;28;20036;-71
2023/06/24 06:03:35;;;;;;;10.65;3.25;;;;;;;;;;5052924;28;20033;-70
2023/06/24 06:06:01;;;;;;;3.38;3.15;;;;;;;;;;5055553;28;20104;-70
2023/06/24 06:08:27;;;;;;;2.85;2.65;;;;;;;;;;5055789;28;20032;-71
2023/06/24 06:10:52;;;;;;;8.90;3.20;;;;;;;;;;5055855;28;20069;-71
2023/06/24 06:13:18;;;;;;;3.33;3.03;;;;;;;;;;5049379;28;20029;-71
2023/06/24 06:15:43;;;;;;;6.43;3.28;;;;;;;;;;5030294;28;20092;-72
2023/06/24 06:18:08;;;;;;;5.40;3.63;;;;;;;;;;5033403;28;20044;-71
2023/06/24 06:20:34;;;;;;;4.00;3.40;;;;;;;;;;5038527;28;20032;-72
2023/06/24 06:22:59;;;;;;;3.60;3.30;;;;;;;;;;5061987;28;20056;-72
2023/06/24 06:25:25;;;;;;;6.55;3.90;;;;;;;;;;5053520;28;20599;-72
2023/06/24 06:27:50;;;;;;;3.17;2.88;;;;;;;;;;5053246;28;20120;-72
2023/06/24 06:30:16;;;;;;;5.82;3.20;;;;;;;;;;5042948;28;20116;-71
2023/06/24 06:32:41;;;;;;;3.72;3.42;;;;;;;;;;5041095;28;20026;-72
2023/06/24 06:35:07;;;;;;;4.80;3.63;;;;;;;;;;5039203;28;20069;-72
2023/06/24 06:37:33;;;;;;;6.82;3.53;;;;;;;;;;5053664;28;20060;-71
2023/06/24 06:39:59;;;;;;;5.88;3.30;;;;;;;;;;5039266;28;20501;-71
2023/06/24 06:42:24;;;;;;;5.60;3.42;;;;;;;;;;5024276;28;20422;-71
2023/06/24 06:44:50;;;;;;;7.40;3.75;;;;;;;;;;5054412;28;20032;-71
2023/06/24 06:47:15;;;;;;;9.25;8.32;;;;;;;;;;5037605;28;20036;-71
2023/06/24 06:49:40;;;;;;;3.67;3.38;;;;;;;;;;5041579;28;20036;-71
2023/06/24 06:52:06;;;;;;;5.38;3.45;;;;;;;;;;5039053;28;20831;-71
2023/06/24 06:54:32;;;;;;;7.40;3.67;;;;;;;;;;5056095;28;20110;-72
2023/06/24 06:57:04;;;;;;;4.78;3.60;;;;;;;;;;5054041;28;20036;-72
2023/06/24 06:59:31;;;;;;;7.57;3.50;;;;;;;;;;5036203;28;20155;-71
2023/06/24 07:01:56;;;;;;;4.13;3.65;;;;;;;;;;5046095;28;20037;-71
2023/06/24 07:04:22;;;;;;;4.18;3.80;;;;;;;;;;5027942;28;20025;-72
2023/06/24 07:06:47;;;;;;;4.05;3.42;;;;;;;;;;5057782;28;20371;-70
2023/06/24 07:09:13;;;;;;;3.65;3.45;;;;;;;;;;5046668;28;20033;-71
2023/06/24 07:11:38;;;;;;;4.90;3.25;;;;;;;;;;5014278;28;20049;-71
2023/06/24 07:14:03;;;;;;;3.70;3.40;;;;;;;;;;5053571;28;20080;-71
2023/06/24 07:16:29;;;;;;;6.05;3.78;;;;;;;;;;5049986;28;20072;-71
2023/06/24 07:18:54;;;;;;;5.45;3.53;;;;;;;;;;5044683;28;20592;-71
2023/06/24 07:21:20;;;;;;;4.90;3.50;;;;;;;;;;5029401;28;20064;-71
2023/06/24 07:23:46;;;;;;;4.38;3.65;;;;;;;;;;5031311;28;20106;-71
2023/06/24 07:26:11;;;;;;;3.83;3.50;;;;;;;;;;5030190;28;20085;-71
2023/06/24 07:28:37;;;;;;;4.10;3.80;;;;;;;;;;5031232;28;20041;-71
2023/06/24 07:31:02;;;;;;;4.00;3.60;;;;;;;;;;5015195;28;20041;-71
2023/06/24 07:33:30;;;;;;;8.45;3.88;;;;;;;;;;5048353;28;20104;-72
2023/06/24 07:35:56;;;;;;;8.75;3.92;;;;;;;;;;5031211;28;20033;-71
2023/06/24 07:38:21;;;;;;;4.00;3.60;;;;;;;;;;5053838;28;20029;-71
2023/06/24 07:40:46;;;;;;;4.50;4.07;;;;;;;;;;5049833;28;20044;-72
2023/06/24 07:43:12;;;;;;;7.50;3.83;;;;;;;;;;5052157;28;20372;-70
2023/06/24 07:45:37;;;;;;;3.85;3.47;;;;;;;;;;5051466;28;20075;-70
2023/06/24 07:48:04;;;;;;;3.97;3.67;;;;;;;;;;5034374;28;20155;-72
2023/06/24 07:50:31;;;;;;;4.70;4.30;;;;;;;;;;5049865;28;20047;-71
2023/06/24 07:52:56;;;;;;;4.00;3.60;;;;;;;;;;5033362;28;20054;-71
2023/06/24 07:55:22;;;;;;;3.97;3.53;;;;;;;;;;5014859;28;20052;-70
2023/06/24 07:57:48;;;;;;;6.00;3.70;;;;;;;;;;5037250;28;20021;-71
2023/06/24 08:00:14;;;;;;;4.20;3.72;;;;;;;;;;5038665;28;20037;-71
2023/06/24 08:02:41;;;;;;;7.07;6.38;;;;;;;;;;5043664;28;20035;-72
2023/06/24 08:05:06;;;;;;;5.18;3.97;;;;;;;;;;5023355;28;20028;-72
2023/06/24 08:07:32;;;;;;;6.32;4.00;;;;;;;;;;5017182;28;20383;-71
2023/06/24 08:09:57;;;;;;;10.43;3.92;;;;;;;;;;5031081;28;20025;-72
2023/06/24 08:12:23;;;;;;;14.15;4.18;;;;;;;;;;5032721;28;20457;-73
2023/06/24 08:14:48;;;;;;;4.15;3.75;;;;;;;;;;5050598;28;20029;-72
2023/06/24 08:17:14;;;;;;;4.30;3.90;;;;;;;;;;5034584;28;20409;-71
2023/06/24 08:19:39;;;;;;;6.25;3.83;;;;;;;;;;5054921;28;20469;-71
2023/06/24 08:22:05;;;;;;;4.68;4.18;;;;;;;;;;5049399;28;20482;-70
2023/06/24 08:24:31;;;;;;;5.00;3.90;;;;;;;;;;5033086;28;20060;-70
2023/06/24 08:26:56;;;;;;;5.78;3.97;;;;;;;;;;5025655;28;20033;-71
2023/06/24 08:29:22;;;;;;;4.20;3.80;;;;;;;;;;5031924;28;20238;-69
2023/06/24 08:31:47;;;;;;;4.13;3.83;;;;;;;;;;5050346;28;20036;-71
2023/06/24 08:34:13;;;;;;;5.90;4.15;;;;;;;;;;5035258;28;20025;-70
2023/06/24 08:36:38;;;;;;;7.50;4.18;;;;;;;;;;5031653;28;20067;-72
2023/06/24 08:39:03;;;;;;;4.93;3.78;;;;;;;;;;5017751;28;20040;-72
2023/06/24 08:41:29;;;;;;;8.65;4.07;;;;;;;;;;5018575;28;20033;-72
2023/06/24 08:43:55;;;;;;;4.50;4.10;;;;;;;;;;5038317;28;20036;-71
2023/06/24 08:46:21;;;;;;;5.53;3.80;;;;;;;;;;5031552;28;20110;-70
2023/06/24 08:48:48;;;;;;;8.30;4.10;;;;;;;;;;5047897;28;20025;-72
2023/06/24 08:51:18;;;;;;;8.43;3.97;;;;;;;;;;5022491;28;20038;-72
2023/06/24 08:53:44;;;;;;;6.30;3.97;;;;;;;;;;5050238;28;20029;-72
2023/06/24 08:56:10;;;;;;;4.35;3.92;;;;;;;;;;5051872;28;20055;-72
2023/06/24 08:58:35;;;;;;;5.45;4.13;;;;;;;;;;5049971;28;20057;-72
2023/06/24 09:01:02;;;;;;;4.32;3.92;;;;;;;;;;5040156;28;20511;-72
2023/06/24 09:03:28;;;;;;;3.92;3.63;;;;;;;;;;5054113;28;20401;-71
2023/06/24 09:05:53;;;;;;;9.05;4.50;;;;;;;;;;5035397;28;20044;-70
2023/06/24 09:08:21;;;;;;;5.28;4.10;;;;;;;;;;5015383;28;20551;-70
2023/06/24 09:10:55;;;;;;;12.05;4.18;;;;;;;;;;5036781;28;20064;-71
2023/06/24 09:13:22;;;;;;;4.57;4.22;;;;;;;;;;5048301;28;20032;-72
2023/06/24 09:15:48;;;;;;;4.28;3.97;;;;;;;;;;5011719;28;20045;-72
2023/06/24 09:18:16;;;;;;;5.57;3.75;;;;;;;;;;5045903;28;20086;-69
2023/06/24 09:20:45;;;;;;;6.82;4.15;;;;;;;;;;5028159;28;20037;-71
2023/06/24 09:23:10;;;;;;;8.05;4.28;;;;;;;;;;5046097;28;20767;-71
2023/06/24 09:25:36;;;;;;;7.72;3.60;;;;;;;;;;5013946;28;20037;-70
2023/06/24 09:28:02;;;;;;;7.75;4.22;;;;;;;;;;5029785;28;20116;-71
2023/06/24 09:30:28;;;;;;;5.82;4.43;;;;;;;;;;5046855;28;20564;-71
2023/06/24 09:32:54;;;;;;;3.90;3.60;;;;;;;;;;5047446;28;20033;-70
2023/06/24 09:35:25;;;;;;;5.68;4.30;;;;;;;;;;5046020;28;20036;-72
2023/06/24 09:37:55;;;;;;;6.03;3.90;;;;;;;;;;5036274;28;20029;-71
2023/06/24 09:40:22;;;;;;;6.33;4.53;;;;;;;;;;5034745;28;20041;-71
2023/06/24 09:42:56;;;;;;;7.03;4.38;;;;;;;;;;5046890;28;20493;-73
2023/06/24 09:45:26;;;;;;;5.72;3.90;;;;;;;;;;5052264;28;20039;-72
2023/06/24 09:47:52;;;;;;;7.43;3.78;;;;;;;;;;5053078;28;20021;-72
2023/06/24 09:50:18;;;;;;;12.90;9.63;;;;;;;;;;5037328;28;20041;-72
2023/06/24 09:52:45;;;;;;;6.22;3.95;;;;;;;;;;5019895;28;20053;-71
2023/06/24 09:55:14;;;;;;;8.32;4.22;;;;;;;;;;5049114;28;20033;-72
2023/06/24 09:57:50;;;;;;;10.02;5.50;;;;;;;;;;5049880;28;20035;-72
2023/06/24 10:00:19;;;;;;;8.57;4.20;;;;;;;;;;5051144;28;20044;-72
2023/06/24 10:02:46;;;;;;;5.65;3.90;;;;;;;;;;5059865;28;20470;-71
2023/06/24 10:05:14;;;;;;;6.82;4.35;;;;;;;;;;5048800;28;20494;-73
2023/06/24 10:07:41;;;;;;;4.88;3.97;;;;;;;;;;5055306;28;20025;-73
2023/06/24 10:10:09;;;;;;;4.82;3.55;;;;;;;;;;5034057;28;20143;-73
2023/06/24 10:12:35;;;;;;;6.30;4.03;;;;;;;;;;5052949;28;20017;-73
2023/06/24 10:15:01;;;;;;;4.82;4.43;;;;;;;;;;5055291;28;20379;-73
2023/06/24 10:17:26;;;;;;;4.20;3.65;;;;;;;;;;5026530;28;20086;-74
2023/06/24 10:19:56;;;;;;;7.57;4.25;;;;;;;;;;5052294;28;20035;-69
2023/06/24 10:22:25;;;;;;;8.02;3.90;;;;;;;;;;5053306;28;20431;-73
2023/06/24 10:24:52;;;;;;;8.23;3.85;;;;;;;;;;5064022;28;20052;-74
2023/06/24 10:27:24;;;;;;;4.82;4.05;;;;;;;;;;5054156;28;20497;-72
2023/06/24 10:29:56;;;;;;;4.05;3.70;;;;;;;;;;5051404;28;20028;-74
2023/06/24 10:32:22;;;;;;;8.00;3.83;;;;;;;;;;5057319;28;20033;-75
2023/06/24 10:34:56;;;;;;;4.15;3.83;;;;;;;;;;5061542;28;20544;-75
2023/06/24 10:37:24;;;;;;;6.80;3.35;;;;;;;;;;5053535;28;20098;-73
2023/06/24 10:39:50;;;;;;;7.13;3.90;;;;;;;;;;5055948;28;20025;-76
2023/06/24 10:42:26;;;;;;;5.13;4.10;;;;;;;;;;5057993;28;20751;-75
2023/06/24 10:44:53;;;;;;;11.73;3.75;;;;;;;;;;5053828;28;20029;-76
2023/06/24 10:47:19;;;;;;;4.22;3.83;;;;;;;;;;5055189;28;20036;-76
2023/06/24 10:49:45;;;;;;;4.10;3.70;;;;;;;;;;5044813;28;20501;-77
2023/06/24 10:52:11;;;;;;;4.32;3.75;;;;;;;;;;5041722;28;20025;-74
2023/06/24 10:54:38;;;;;;;4.32;3.53;;;;;;;;;;5044139;28;20020;-75
2023/06/24 10:57:04;;;;;;;4.55;3.55;;;;;;;;;;5055192;28;20035;-76
2023/06/24 10:59:41;;;;;;;11.70;4.30;;;;;;;;;;5020165;28;20039;-75
2023/06/24 11:02:09;;;;;;;6.60;4.30;;;;;;;;;;5051776;28;20041;-76
2023/06/24 11:04:42;;;;;;;5.13;3.70;;;;;;;;;;5053780;28;20541;-75
2023/06/24 11:07:08;;;;;;;5.63;3.90;;;;;;;;;;5035385;28;20041;-76
2023/06/24 11:09:33;;;;;;;6.38;3.65;;;;;;;;;;5023885;28;20036;-77
2023/06/24 11:11:59;;;;;;;7.85;3.95;;;;;;;;;;5045066;28;20029;-74
2023/06/24 11:14:24;;;;;;;4.15;3.72;;;;;;;;;;5039988;28;20107;-74
2023/06/24 11:16:49;;;;;;;6.05;4.20;;;;;;;;;;5020489;28;20044;-75
2023/06/24 11:19:15;;;;;;;8.77;5.18;;;;;;;;;;5054579;28;20033;-75
2023/06/24 11:21:40;;;;;;;5.38;3.97;;;;;;;;;;5053420;28;20109;-74
2023/06/24 11:24:06;;;;;;;8.65;4.32;;;;;;;;;;5037405;28;20048;-73
2023/06/24 11:26:35;;;;;;;5.30;3.70;;;;;;;;;;5036554;28;20037;-72
2023/06/24 11:29:00;;;;;;;5.63;4.07;;;;;;;;;;5039771;28;20520;-75
2023/06/24 11:31:26;;;;;;;5.15;3.92;;;;;;;;;;5026760;28;20437;-75
2023/06/24 11:33:51;;;;;;;7.78;3.63;;;;;;;;;;5056525;28;20028;-78
2023/06/24 11:36:20;;;;;;;4.13;3.72;;;;;;;;;;5043419;28;20116;-76
2023/06/24 11:38:46;;;;;;;4.22;3.83;;;;;;;;;;5039367;28;20020;-75
2023/06/24 11:41:12;;;;;;;6.30;3.90;;;;;;;;;;5049029;28;20048;-75
2023/06/24 11:43:44;;;;;;;4.78;3.67;;;;;;;;;;5051550;28;20497;-74
2023/06/24 11:46:10;;;;;;;5.30;4.05;;;;;;;;;;5024878;28;20048;-74
2023/06/24 11:48:40;;;;;;;7.97;4.10;;;;;;;;;;5053986;28;20037;-74
2023/06/24 11:51:15;;;;;;;5.93;4.77;;;;;;;;;;5051641;28;20049;-74
2023/06/24 11:53:43;;;;;;;5.72;4.32;;;;;;;;;;5047664;28;20451;-74
2023/06/24 11:56:08;;;;;;;4.95;4.18;;;;;;;;;;5048390;28;20120;-75
2023/06/24 11:58:37;;;;;;;4.18;3.75;;;;;;;;;;5041075;28;20056;-74
2023/06/24 12:01:03;;;;;;;8.82;4.28;;;;;;;;;;5031708;28;20037;-75
2023/06/24 12:03:29;;;;;;;4.07;3.72;;;;;;;;;;5054594;28;20537;-74
2023/06/24 12:05:55;;;;;;;6.47;4.20;;;;;;;;;;5053664;28;20037;-76
2023/06/24 12:08:22;;;;;;;4.88;3.95;;;;;;;;;;5047125;28;20031;-74
2023/06/24 12:10:48;;;;;;;5.95;4.00;;;;;;;;;;5052625;28;20048;-75
2023/06/24 12:13:13;;;;;;;6.93;4.03;;;;;;;;;;5055234;28;20041;-75
2023/06/24 12:15:39;;;;;;;5.30;4.18;;;;;;;;;;5052140;28;20053;-74
2023/06/24 12:18:05;;;;;;;5.57;4.20;;;;;;;;;;5055700;28;20033;-75
2023/06/24 12:20:32;;;;;;;4.68;4.28;;;;;;;;;;5012607;28;20086;-73
2023/06/24 12:22:58;;;;;;;4.50;4.10;;;;;;;;;;5039163;28;20039;-75
2023/06/24 12:25:23;;;;;;;4.45;4.05;;;;;;;;;;5052034;28;20398;-76
2023/06/24 12:27:50;;;;;;;5.32;3.70;;;;;;;;;;5037056;28;20020;-74
2023/06/24 12:30:16;;;;;;;4.97;3.85;;;;;;;;;;5035217;28;20040;-76
2023/06/24 12:32:42;;;;;;;5.72;4.20;;;;;;;;;;5053598;28;20082;-76
2023/06/24 12:35:11;;;;;;;4.63;4.15;;;;;;;;;;5040160;28;20418;-76
2023/06/24 12:37:37;;;;;;;4.18;3.88;;;;;;;;;;5032223;28;20085;-75
2023/06/24 12:40:04;;;;;;;5.57;4.30;;;;;;;;;;5058339;28;20037;-74
2023/06/24 12:42:30;;;;;;;4.38;3.72;;;;;;;;;;5059841;28;20048;-76
2023/06/24 12:44:55;;;;;;;4.80;3.58;;;;;;;;;;5033439;28;20026;-75
2023/06/24 12:47:21;;;;;;;4.75;4.28;;;;;;;;;;5041883;28;20045;-76
2023/06/24 12:49:47;;;;;;;10.35;4.13;;;;;;;;;;5034828;28;20038;-64
2023/06/24 12:52:13;;;;;;;5.47;4.05;;;;;;;;;;5059409;28;20037;-75
2023/06/24 12:54:39;;;;;;;10.05;3.95;;;;;;;;;;5037385;28;20025;-77
2023/06/24 12:57:04;;;;;;;8.55;3.92;;;;;;;;;;5042119;28;20061;-75
2023/06/24 12:59:30;;;;;;;6.07;4.00;;;;;;;;;;5055365;28;20104;-75
2023/06/24 13:01:55;;;;;;;6.35;3.63;;;;;;;;;;5003755;28;20029;-71
2023/06/24 13:04:22;;;;;;;7.10;4.15;;;;;;;;;;5031918;28;20029;-77
2023/06/24 13:06:49;;;;;;;8.55;3.88;;;;;;;;;;5038534;28;20705;-73
2023/06/24 13:09:14;;;;;;;4.85;3.90;;;;;;;;;;5058972;28;20033;-75
2023/06/24 13:11:40;;;;;;;5.43;3.85;;;;;;;;;;5052947;28;20036;-75
2023/06/24 13:14:05;;;;;;;7.07;4.20;;;;;;;;;;5035995;28;20029;-75
2023/06/24 13:16:31;;;;;;;4.13;3.83;;;;;;;;;;5042316;28;20088;-72
2023/06/24 13:18:56;;;;;;;8.05;4.20;;;;;;;;;;5039722;28;20117;-76
2023/06/24 13:21:22;;;;;;;5.70;3.85;;;;;;;;;;5028724;28;20045;-76
2023/06/24 13:23:48;;;;;;;6.20;3.72;;;;;;;;;;5027630;28;20029;-76
2023/06/24 13:26:14;;;;;;;6.70;4.20;;;;;;;;;;5050539;28;20048;-77
2023/06/24 13:28:40;;;;;;;6.72;4.00;;;;;;;;;;5039715;28;20059;-75
2023/06/24 13:31:06;;;;;;;5.38;3.92;;;;;;;;;;5054116;28;20043;-76
2023/06/24 13:33:31;;;;;;;11.38;3.95;;;;;;;;;;5057756;28;20056;-76
2023/06/24 13:35:57;;;;;;;5.68;4.20;;;;;;;;;;5021203;28;20368;-76
2023/06/24 13:38:22;;;;;;;5.20;3.78;;;;;;;;;;5047099;28;20037;-76
2023/06/24 13:40:48;;;;;;;3.80;3.50;;;;;;;;;;5023131;28;20060;-76
2023/06/24 13:43:13;;;;;;;5.05;3.92;;;;;;;;;;5038033;28;20037;-76
2023/06/24 13:45:38;;;;;;;5.40;4.00;;;;;;;;;;5033387;28;20045;-76
2023/06/24 13:48:04;;;;;;;5.47;4.20;;;;;;;;;;5030094;28;20052;-75
2023/06/24 13:50:29;;;;;;;4.30;3.88;;;;;;;;;;5059271;28;20029;-76
2023/06/24 13:52:55;;;;;;;5.28;4.00;;;;;;;;;;5032166;28;20021;-75
2023/06/24 13:55:21;;;;;;;3.97;3.67;;;;;;;;;;5038699;28;20542;-75
2023/06/24 13:57:46;;;;;;;7.07;4.10;;;;;;;;;;5035267;28;20109;-74
2023/06/24 14:00:12;;;;;;;5.57;4.30;;;;;;;;;;5040711;28;20056;-74
2023/06/24 14:02:39;;;;;;;6.00;4.05;;;;;;;;;;5054996;28;20035;-74
2023/06/24 14:05:05;;;;;;;5.65;3.70;;;;;;;;;;5052410;28;20036;-76
2023/06/24 14:07:30;;;;;;;6.32;3.72;;;;;;;;;;5034420;28;20443;-74
2023/06/24 14:09:56;;;;;;;8.52;4.07;;;;;;;;;;5027832;28;20074;-72
2023/06/24 14:12:21;;;;;;;4.63;3.53;;;;;;;;;;5057055;28;20013;-72
2023/06/24 14:14:47;;;;;;;7.13;4.13;;;;;;;;;;5042336;28;20028;-50
2023/06/24 14:17:12;;;;;;;4.65;3.97;;;;;;;;;;5028323;28;20522;-72
2023/06/24 14:19:41;;;;;;;4.25;3.90;;;;;;;;;;5054494;28;20028;-74
2023/06/24 14:22:07;;;;;;;4.72;4.32;;;;;;;;;;5021006;28;20114;-75
2023/06/24 14:24:33;;;;;;;10.00;4.45;;;;;;;;;;5052793;28;20100;-72
2023/06/24 14:26:59;;;;;;;9.30;4.57;;;;;;;;;;5039772;28;20536;-72
2023/06/24 14:29:25;;;;;;;5.60;4.07;;;;;;;;;;5040366;28;20529;-73
2023/06/24 14:31:51;;;;;;;6.47;4.50;;;;;;;;;;5060290;28;20040;-74
2023/06/24 14:34:17;;;;;;;7.57;4.15;;;;;;;;;;5048454;28;20069;-75
2023/06/24 14:36:42;;;;;;;6.68;3.97;;;;;;;;;;5056129;28;20044;-72
2023/06/24 14:39:08;;;;;;;10.13;4.05;;;;;;;;;;5050563;28;20547;-75
2023/06/24 14:41:33;;;;;;;4.75;3.90;;;;;;;;;;5019008;28;20406;-74